Flight Track Log - Related Links

Times and Time Zones

All times are in EDT time to prevent confusion due to time zone crossing. See the UAL582 flight status page for this flight to view local times or setup timezone preferences in your user account.

Time Position Orientation Groundspeed Altitude Reporting Facility
EDT Latitude Longitude Course Direction KTS MPH feet Rate Location/Type
Mon 05:16:52 PM 43.6833 -79.6167 257° West 110 127 1,500  Level Toronto Center
Mon 05:17:52 PM 43.7333 -79.5667 36° Northeast 200 230 3,900 2,600 Climbing Toronto Center
Mon 05:18:52 PM 43.7833 -79.6167 324° Northwest 270 311 6,700 3,150 Climbing Toronto Center
Mon 05:19:52 PM 43.7833 -79.7000 270° West 260 299 10,200 3,050 Climbing Toronto Center
Mon 05:20:00 PM 43.6021 -80.0827 270° West  Level Estimated
Mon 05:20:52 PM 43.7833 -79.8167 270° West 320 368 12,800  Level Toronto Center
Mon 05:21:00 PM 43.6327 -80.1907 291° West  Level FlightAware Approximate
Mon 05:21:52 PM 43.7667 -79.9500 260° West 320 368 15,800  Level Toronto Center
Mon 05:22:00 PM 43.6129 -80.3034 257° West  Level Estimated
Mon 05:22:52 PM 43.7667 -80.0667 270° West 320 368 18,300  Level Toronto Center
Mon 05:23:52 PM 43.7667 -80.2167 270° West 330 380 20,500 2,200 Climbing Toronto Center
Mon 05:24:52 PM 43.7500 -80.3500 260° West 350 403 22,700 1,950 Climbing Toronto Center
Mon 05:25:52 PM 43.7500 -80.4667 270° West 360 414 24,400 1,750 Climbing Toronto Center
Mon 05:26:52 PM 43.7333 -80.6000 260° West 360 414 26,200 1,650 Climbing Toronto Center
Mon 05:27:52 PM 43.7000 -80.7667 255° West 380 437 27,700 1,450 Climbing Toronto Center
Mon 05:28:52 PM 43.6500 -80.9000 243° Southwest 380 437 29,100 1,300 Climbing Toronto Center
Mon 05:29:52 PM 43.6167 -81.0333 251° West 390 449 30,300 1,300 Climbing Toronto Center
Mon 05:30:52 PM 43.5833 -81.1833 253° West 400 460 31,700 1,450 Climbing Toronto Center
Mon 05:31:52 PM 43.5667 -81.3167 260° West 390 449 33,200 1,350 Climbing Toronto Center
Mon 05:32:52 PM 43.5333 -81.4667 253° West 390 449 34,400 1,050 Climbing Toronto Center
Mon 05:33:52 PM 43.5000 -81.6167 253° West 390 449 35,300 800 Climbing Toronto Center
Mon 05:34:52 PM 43.4667 -81.7667 253° West 400 460 36,000 350 Climbing Toronto Center
Mon 05:35:52 PM 43.4333 -81.9000 251° West 390 449 36,000  Level Toronto Center
Mon 05:36:52 PM 43.4000 -82.0500 253° West 400 460 36,000  Level Toronto Center
Mon 05:37:52 PM 43.3667 -82.1833 251° West 400 460 36,000  Level Toronto Center
Mon 05:38:52 PM 43.3333 -82.3333 253° West 390 449 36,000  Level Toronto Center
Mon 05:39:52 PM 43.3000 -82.4667 251° West 390 449 36,000  Level Toronto Center
Mon 05:40:52 PM 43.2667 -82.6167 253° West 390 449 36,000  Level Toronto Center
Mon 05:41:52 PM 43.2167 -82.7667 245° Southwest 390 449 36,000  Level Toronto Center
Mon 05:42:52 PM 43.2000 -82.8833 259° West 390 449 36,000  Level Toronto Center
Mon 05:44:04 PM 43.2289 -83.0461 284° West 375 432 36,000 -134 Level Cleveland Center
Mon 05:45:06 PM 43.2958 -83.1600 309° West 385 443 35,700 -672 Descending Cleveland Center
Mon 05:46:09 PM 43.3317 -83.3217 287° West 371 427 34,600 -1,008 Descending Cleveland Center
Mon 05:47:11 PM 43.3583 -83.4594 285° West 375 432 33,600 -968 Descending Cleveland Center
Mon 05:48:13 PM 43.3489 -83.5986 265° West 379 436 32,600 -774 Descending Cleveland Center
Mon 05:49:15 PM 43.2650 -83.6897 218° Southwest 397 457 32,000 -290 Descending Cleveland Center
Mon 05:50:17 PM 43.1803 -83.7806 218° Southwest 398 458 32,000  Level Cleveland Center
Mon 05:51:19 PM 43.1211 -83.9381 243° Southwest 391 450 32,000  Level Cleveland Center
Mon 05:52:21 PM 43.0742 -84.0703 244° Southwest 389 448 32,000  Level Cleveland Center
Mon 05:53:23 PM 43.0250 -84.2019 243° Southwest 391 450 32,000  Level Cleveland Center
Mon 05:54:25 PM 42.9736 -84.3431 244° Southwest 389 448 32,000  Level Cleveland Center
Mon 05:59:20 PM 42.8390 -85.0020 244° Southwest 100 115 32,000  Level FlightAware ADS-B
Mon 06:00:00 PM 42.8290 -85.1040 262° West 100 115 32,000  Level FlightAware ADS-B
Mon 06:00:38 PM 42.8270 -85.1240 262° West 100 115 32,000  Level FlightAware ADS-B
Mon 06:01:26 PM 42.8240 -85.1490 261° West 100 115 32,000 -1,534 Level FlightAware ADS-B
Mon 06:02:51 PM 42.7920 -85.4430 262° West 100 115 28,600 -1,557 Descending FlightAware ADS-B
Mon 06:03:37 PM 42.7890 -85.4680 261° West 100 115 28,600  Level FlightAware ADS-B
Mon 06:04:13 PM 42.7870 -85.4870 262° West 100 115 28,600 -3,191 Level FlightAware ADS-B
Mon 06:05:11 PM 42.7350 -85.7850 257° West 100 115 23,600 -2,804 Descending FlightAware ADS-B
Mon 06:06:00 PM 42.7310 -85.8100 258° West 100 115 23,600 -943 Level FlightAware ADS-B
Mon 06:07:31 PM 42.6710 -86.1290 256° West 353 406 21,400 -857 Descending FlightAware ADS-B
Mon 06:08:34 PM 42.6480 -86.2440 255° West 353 406 21,400 -769 Level FlightAware ADS-B
Mon 06:09:28 PM 42.6230 -86.3890 257° West 351 404 19,900 -1,714 Descending FlightAware ADS-B
Mon 06:10:05 PM 42.6050 -86.4840 256° West 351 404 18,800 -1,048 Descending FlightAware ADS-B
Mon 06:10:31 PM 42.5960 -86.5320 256° West 351 404 18,800  Level FlightAware ADS-B
Mon 06:11:10 PM 42.5830 -86.6030 256° West 351 404 18,800 -1,277 Level FlightAware ADS-B
Mon 06:12:05 PM 42.5570 -86.7360 255° West 351 404 16,800 -1,765 Descending FlightAware ADS-B
Mon 06:12:35 PM 42.5380 -86.8030 249° West 353 406 16,300 -706 Descending FlightAware ADS-B
Mon 06:13:30 PM 42.5110 -86.9140 252° West 357 411 15,800 -1,020 Descending FlightAware ADS-B
Mon 06:14:15 PM 42.4830 -87.0090 248° West 343 395 14,600 -1,200 Descending FlightAware ADS-B
Mon 06:15:25 PM 42.4460 -87.1440 250° West 335 386 13,500 -1,350 Descending FlightAware ADS-B
Mon 06:16:15 PM 42.4180 -87.2490 250° West 327 376 11,900 -1,568 Descending FlightAware ADS-B
Mon 06:17:16 PM 42.3880 -87.3550 249° West 326 375 10,600 -780 Descending FlightAware ADS-B
Mon 06:17:55 PM 42.3650 -87.4370 249° West 317 365 10,600 58 Level FlightAware ADS-B
Mon 06:19:00 PM 42.3190 -87.5550 242° Southwest 327 376 10,700 63 Climbing FlightAware ADS-B
Mon 06:19:30 PM 42.2860 -87.5900 218° Southwest 330 380 10,700 -86 Level FlightAware ADS-B
Mon 06:20:10 PM 42.2350 -87.6440 218° Southwest 347 399 10,600  Descending FlightAware ADS-B
Mon 06:21:00 PM 42.1720 -87.7090 217° Southwest 326 375 10,700 -253 Climbing FlightAware ADS-B
Mon 06:21:45 PM 42.1220 -87.7610 218° Southwest 316 364 10,200 -1,036 Descending FlightAware ADS-B
Mon 06:22:50 PM 42.1000 -87.9000 218° Southwest 268 308 8,800 -1,462 Descending Chicago TRACON
Mon 06:23:44 PM 42.0833 -87.9833 255° West 265 305 7,300 -1,000 Descending Chicago TRACON
Mon 06:24:50 PM 42.1000 -88.0833 283° West 223 257 6,800 -812 Descending Chicago TRACON
Mon 06:25:57 PM 42.0906 -88.1694 262° West 226 260 5,500 -1,116 Descending Chicago Center
Mon 06:26:59 PM 42.0906 -88.2492 270° West 217 250 4,400 -726 Descending Chicago Center
Mon 06:28:01 PM 42.0897 -88.3317 269° West 218 251 4,000 -145 Descending Chicago Center
Mon 06:29:03 PM 42.0669 -88.3794 237° Southwest 196 226 4,100 48 Climbing Chicago Center
Mon 06:30:05 PM 42.0186 -88.3531 158° South 184 212 4,100  Level Chicago Center
Mon 06:31:07 PM 42.0042 -88.2894 107° East 182 209 4,100  Level Chicago Center
Mon 06:32:10 PM 41.9997 -88.2258 95° East 176 203 4,100  Level Chicago Center
Mon 06:33:12 PM 42.0025 -88.1631 87° East 172 198 4,100 -297 Level Chicago Center
Mon 06:33:51 PM 42.0000 -88.1167 94° East 166 191 3,600 -848 Descending Chicago TRACON
Mon 06:34:51 PM 42.0000 -88.0500 90° East 157 181 2,700 -850 Descending Chicago TRACON
Mon 06:35:51 PM 42.0000 -88.0000 90° East 126 145 1,900 -750 Descending Chicago TRACON
Mon 06:36:51 PM 42.0000 -87.9667 90° East 121 139 1,200 -700 Descending Chicago TRACON

Login

Don't have an account? Register now (free) for customized features, flight alerts, and more!